Springfield, Illinois
Current Conditions -  °F | °C
As of 1:52 AM on Wednesday 22 Oct 2014 (Local Time) from KSPI Reporting Station
Clear Clear  
Wind Chill:   Ceiling: Unl
Heat Index:   Visibility: 10mi
Dew Point:   Wind: 3mph
Humidity: 89%   Direction: 50°NE
Pressure: 30.25"   Gusts: NA
Location:  39.8°N, 89.64°W
Report Text: KSPI 220652Z AUTO 05003KT 10SM CLR 04/03 A3025 RMK AO2 SLP245 T00440028
Loading
Personal Weather Stations






























Interactive Weather Map
Tropical Storm Tracking
New forecast layout! Learn more

10-Day Weather Forecast

Advertisements
Track Severe Weather on mobile